EWR weather

Newark Liberty International Airport
Newark, New Jersey, United States

Public forecast

Using degrees Fahrenheit for public forecast. Weather courtesy of forecast.io.

Current aviation weather report (METAR) for Newark Liberty International Airport

Retrieved 2020/04/03 17:51 UTC (1 hour ago):

KEWR 031751Z 34020G26KT 10SM -RA SCT035 BKN060 OVC070 13/04 A2968 RMK AO2 PK WND 34028/1731 RAE06B51 SLP050 P0000 60001 T01280039 10133 20072 53002

Aviation forecast (TAF) for Newark Liberty International Airport

Retrieved 2020/04/03 18:22 UTC (34 minutes ago):

TAF KEWR 031720Z 0318/0424 33016G25KT P6SM -RA OVC025 FM031900 33016G25KT P6SM OVC025 FM040000 36013G18KT P6SM OVC025 FM040800 01009G14KT P6SM BKN025 FM041500 03008KT P6SM BKN035 FM042000 09005KT P6SM BKN035 FM042300 13006KT P6SM BKN035